createdAt,value
2019-05-02T00:01:37.544Z,50.23
2019-05-02T00:04:07.482Z,51.67
2019-05-02T00:06:42.879Z,51.20
2019-05-02T00:09:11.139Z,49.83
2019-05-02T00:11:41.372Z,49.60
2019-05-02T00:14:11.582Z,52.23
2019-05-02T00:16:45.086Z,49.03
2019-05-02T00:19:14.255Z,52.23
2019-05-02T00:21:45.551Z,51.90
2019-05-02T00:24:15.447Z,52.93
2019-05-02T00:26:45.469Z,47.40
2019-05-02T00:29:18.968Z,52.10
2019-05-02T00:31:48.831Z,62.27
2019-05-02T00:34:18.781Z,59.67
2019-05-02T00:36:48.730Z,57.97
2019-05-02T00:39:18.666Z,62.17
2019-05-02T00:41:48.548Z,62.50
2019-05-02T00:44:18.561Z,66.57
2019-05-02T00:46:48.844Z,72.80
2019-05-02T00:49:19.011Z,70.43
2019-05-02T00:51:48.949Z,73.40
2019-05-02T00:54:23.663Z,69.90
2019-05-02T00:56:50.513Z,71.30
2019-05-02T00:59:20.720Z,71.70
2019-05-02T01:02:14.344Z,68.50
2019-05-02T01:04:45.498Z,70.13
2019-05-02T01:07:15.444Z,65.30
2019-05-02T01:09:46.827Z,66.03
2019-05-02T01:12:26.334Z,69.87
2019-05-02T01:14:49.078Z,70.93
2019-05-02T01:17:19.260Z,66.23
2019-05-02T01:19:51.510Z,66.03
2019-05-02T01:22:20.809Z,69.33
2019-05-02T01:24:50.777Z,72.27
2019-05-02T01:27:36.130Z,62.83
2019-05-02T01:30:18.268Z,64.93
2019-05-02T01:33:01.387Z,64.63
2019-05-02T01:35:54.772Z,65.40
2019-05-02T01:38:31.807Z,64.07
2019-05-02T01:41:00.471Z,65.63
2019-05-02T01:43:31.429Z,67.53
2019-05-02T01:46:01.497Z,60.27
2019-05-02T01:48:31.445Z,64.60
2019-05-02T01:51:04.351Z,71.83
2019-05-02T01:53:34.329Z,60.17
2019-05-02T01:56:05.113Z,68.87
2019-05-02T01:58:35.384Z,64.70
2019-05-02T02:01:05.825Z,66.10
2019-05-02T02:03:35.771Z,63.27
2019-05-02T02:06:07.955Z,64.17
2019-05-02T02:08:37.363Z,59.83
2019-05-02T02:11:07.288Z,60.63
2019-05-02T02:13:38.066Z,62.27
2019-05-02T02:16:08.330Z,63.33
2019-05-02T02:18:43.333Z,68.47
2019-05-02T02:21:25.505Z,63.63
2019-05-02T02:23:57.544Z,64.47
2019-05-02T02:26:27.490Z,62.07
2019-05-02T02:28:57.371Z,65.47
2019-05-02T02:31:27.645Z,64.23
2019-05-02T02:33:57.811Z,66.93
2019-05-02T02:36:34.209Z,64.60
2019-05-02T02:38:59.411Z,64.10
2019-05-02T02:41:29.367Z,58.80
2019-05-02T02:44:09.108Z,58.37
2019-05-02T02:46:41.261Z,58.77
2019-05-02T02:49:14.028Z,60.07
2019-05-02T02:51:42.852Z,62.30
2019-05-02T02:54:12.835Z,64.57
2019-05-02T02:56:42.959Z,63.53
2019-05-02T02:59:19.359Z,62.60
2019-05-02T03:01:44.884Z,67.17
2019-05-02T03:04:15.113Z,67.47
2019-05-02T03:06:47.129Z,67.23
2019-05-02T03:09:20.466Z,68.30
2019-05-02T03:12:07.557Z,68.83
2019-05-02T03:14:47.306Z,69.57
2019-05-02T03:17:13.206Z,70.23
2019-05-02T03:19:43.158Z,72.77
2019-05-02T03:22:13.094Z,72.70
2019-05-02T03:24:46.236Z,74.90
2019-05-02T03:27:15.378Z,69.27
2019-05-02T03:29:45.611Z,70.77
2019-05-02T03:32:29.936Z,70.80
2019-05-02T03:34:52.830Z,69.90
2019-05-02T03:37:19.695Z,73.33
2019-05-02T03:39:57.197Z,74.33
2019-05-02T03:42:21.385Z,68.07
2019-05-02T03:44:56.067Z,67.67
2019-05-02T03:47:23.476Z,69.67
2019-05-02T03:49:53.597Z,68.73
2019-05-02T03:52:23.823Z,65.40
2019-05-02T03:54:53.914Z,70.17
2019-05-02T03:57:32.025Z,75.17
2019-05-02T03:59:55.708Z,70.23
2019-05-02T04:02:27.172Z,66.77
2019-05-02T04:05:00.572Z,66.07
2019-05-02T04:07:39.747Z,66.20
2019-05-02T04:10:02.143Z,63.33
2019-05-02T04:12:33.404Z,64.93
2019-05-02T04:15:03.415Z,67.27
2019-05-02T04:17:35.400Z,67.50
2019-05-02T04:20:09.259Z,66.43
2019-05-02T04:22:42.879Z,61.10
2019-05-02T04:25:10.732Z,67.23
2019-05-02T04:27:41.719Z,64.83
2019-05-02T04:30:14.246Z,67.30
2019-05-02T04:32:49.561Z,62.47
2019-05-02T04:35:15.717Z,61.63
2019-05-02T04:37:45.598Z,63.30
2019-05-02T04:40:18.211Z,69.67
2019-05-02T04:42:53.455Z,66.87
2019-05-02T04:45:27.548Z,67.33
2019-05-02T04:47:58.462Z,65.07
2019-05-02T04:50:25.197Z,61.33
2019-05-02T04:52:55.081Z,63.40
2019-05-02T04:55:30.222Z,63.10
2019-05-02T04:57:58.814Z,68.17
2019-05-02T05:00:29.014Z,69.13
2019-05-02T05:02:59.093Z,64.67
2019-05-02T05:05:31.386Z,63.83
2019-05-02T05:08:00.561Z,64.00
2019-05-02T05:10:40.240Z,56.83
2019-05-02T05:13:02.760Z,63.63
2019-05-02T05:15:38.352Z,66.10
2019-05-02T05:18:10.468Z,65.83
2019-05-02T05:20:38.573Z,64.67
2019-05-02T05:23:08.345Z,66.37
2019-05-02T05:25:47.905Z,66.23
2019-05-02T05:28:19.956Z,61.97
2019-05-02T05:30:52.154Z,65.13
2019-05-02T05:33:21.839Z,62.43
2019-05-02T05:35:53.036Z,68.70
2019-05-02T05:38:27.840Z,68.37
2019-05-02T05:40:54.557Z,67.20
2019-05-02T05:43:24.680Z,69.27
2019-05-02T05:46:06.049Z,67.60
2019-05-02T05:48:32.111Z,66.70
2019-05-02T05:51:00.218Z,64.43
2019-05-02T05:53:30.156Z,69.47
2019-05-02T05:56:02.456Z,72.83
2019-05-02T05:58:32.052Z,74.77
2019-05-02T06:01:02.330Z,68.37
2019-05-02T06:03:34.052Z,73.13
2019-05-02T06:06:03.958Z,69.17
2019-05-02T06:08:33.917Z,65.37
2019-05-02T06:11:03.881Z,66.27
2019-05-02T06:13:33.750Z,65.73
2019-05-02T06:16:03.807Z,74.93
2019-05-02T06:18:36.432Z,73.37
2019-05-02T06:21:08.706Z,67.47
2019-05-02T06:23:41.361Z,67.83
2019-05-02T06:26:13.449Z,68.10
2019-05-02T06:28:43.229Z,69.73
2019-05-02T06:31:13.425Z,64.70
2019-05-02T06:33:43.306Z,72.93
2019-05-02T06:36:14.001Z,75.07
2019-05-02T06:38:43.926Z,76.07
2019-05-02T06:41:16.166Z,74.40
2019-05-02T06:43:46.533Z,67.33
2019-05-02T06:46:21.597Z,74.93
2019-05-02T06:48:52.299Z,69.97
2019-05-02T06:51:21.282Z,64.80
2019-05-02T06:53:51.195Z,69.27
2019-05-02T06:56:22.210Z,56.10
2019-05-02T06:58:54.465Z,49.00
2019-05-02T07:01:24.732Z,40.10
2019-05-02T07:03:54.946Z,42.93
2019-05-02T07:06:26.336Z,47.37
2019-05-02T07:08:59.455Z,45.10
2019-05-02T07:11:28.426Z,39.27
2019-05-02T07:14:11.807Z,41.93
2019-05-02T07:16:39.639Z,44.47
2019-05-02T07:19:30.641Z,39.30
2019-05-02T07:22:04.222Z,45.20
2019-05-02T07:24:32.780Z,48.50
2019-05-02T07:27:04.237Z,39.40
2019-05-02T07:29:34.203Z,46.73
2019-05-02T07:32:04.169Z,47.63
2019-05-02T07:34:34.050Z,50.70
2019-05-02T07:37:08.410Z,51.33
2019-05-02T07:39:36.065Z,57.37
2019-05-02T07:42:07.889Z,54.10
2019-05-02T07:44:37.943Z,55.97
2019-05-02T07:47:07.882Z,54.57
2019-05-02T07:49:38.627Z,55.17
2019-05-02T07:52:09.152Z,49.43
2019-05-02T07:54:39.379Z,50.40
2019-05-02T07:57:09.650Z,53.10
2019-05-02T07:59:40.023Z,53.33
2019-05-02T08:02:09.956Z,58.40
2019-05-02T08:04:43.537Z,53.87
2019-05-02T08:07:11.661Z,54.07
2019-05-02T08:09:44.071Z,49.40
2019-05-02T08:12:15.546Z,54.57
2019-05-02T08:14:45.521Z,58.37
2019-05-02T08:17:17.042Z,57.77
2019-05-02T08:19:47.413Z,55.73
2019-05-02T08:22:17.361Z,53.83
2019-05-02T08:24:47.303Z,60.63
2019-05-02T08:27:39.040Z,64.50
2019-05-02T08:30:15.933Z,68.97
2019-05-02T08:32:45.867Z,65.30
2019-05-02T08:35:15.862Z,67.57
2019-05-02T08:37:45.749Z,69.23
2019-05-02T08:40:15.804Z,68.73
2019-05-02T08:42:45.753Z,77.53
2019-05-02T08:45:16.168Z,75.63
2019-05-02T08:47:46.112Z,77.00
2019-05-02T08:50:16.153Z,70.87
2019-05-02T08:52:48.151Z,72.03
2019-05-02T08:55:18.185Z,68.97
2019-05-02T08:57:49.571Z,63.17
2019-05-02T09:00:19.650Z,74.97
2019-05-02T09:02:49.542Z,73.33
2019-05-02T09:05:19.476Z,72.47
2019-05-02T09:07:50.059Z,70.43
2019-05-02T09:10:20.030Z,71.77
2019-05-02T09:12:52.165Z,71.63
2019-05-02T09:15:22.438Z,69.53
2019-05-02T09:17:56.218Z,74.23
2019-05-02T09:20:24.347Z,72.17
2019-05-02T09:22:56.071Z,70.47
2019-05-02T09:25:26.099Z,64.10
2019-05-02T09:27:56.592Z,65.90
2019-05-02T09:30:26.626Z,68.53
2019-05-02T09:32:57.130Z,65.40
2019-05-02T09:35:28.459Z,59.40
2019-05-02T09:38:01.626Z,63.40
2019-05-02T09:40:31.886Z,59.13
2019-05-02T09:43:04.720Z,62.20
2019-05-02T09:45:37.409Z,60.80
2019-05-02T09:48:08.081Z,61.13
2019-05-02T09:50:38.515Z,63.67
2019-05-02T09:53:13.184Z,65.90
2019-05-02T09:55:42.273Z,63.20
2019-05-02T09:58:19.689Z,63.47
2019-05-02T10:01:15.022Z,66.47
2019-05-02T10:03:45.517Z,56.20
2019-05-02T10:06:18.125Z,57.37
2019-05-02T10:08:47.856Z,63.37
2019-05-02T10:11:22.510Z,61.87
2019-05-02T10:13:51.904Z,58.90
2019-05-02T10:16:23.565Z,61.13
2019-05-02T10:18:53.827Z,62.50
2019-05-02T10:21:23.790Z,63.27
2019-05-02T10:23:59.315Z,58.83
2019-05-02T10:26:25.571Z,63.57
2019-05-02T10:28:55.595Z,61.50
2019-05-02T10:31:27.624Z,63.47
2019-05-02T10:33:57.440Z,62.17
2019-05-02T10:36:27.638Z,57.53
2019-05-02T10:38:59.365Z,67.17
2019-05-02T10:41:31.701Z,56.63
2019-05-02T10:44:02.230Z,63.10
2019-05-02T10:46:52.344Z,59.27
2019-05-02T10:49:28.226Z,60.07
2019-05-02T10:51:59.093Z,58.27
2019-05-02T10:54:33.600Z,58.77
2019-05-02T10:57:02.326Z,52.37
2019-05-02T10:59:32.871Z,58.07
2019-05-02T11:02:22.257Z,53.17
2019-05-02T11:04:55.909Z,56.00
2019-05-02T11:07:26.770Z,51.90
2019-05-02T11:10:03.239Z,57.50
2019-05-02T11:12:44.082Z,53.67
2019-05-02T11:15:32.512Z,58.67
2019-05-02T11:18:03.276Z,51.23
2019-05-02T11:20:33.394Z,53.80
2019-05-02T11:23:03.355Z,55.37
2019-05-02T11:25:33.300Z,55.67
2019-05-02T11:28:07.107Z,50.43
2019-05-02T11:30:36.669Z,43.10
2019-05-02T11:33:06.879Z,51.43
2019-05-02T11:35:36.972Z,51.13
2019-05-02T11:38:06.978Z,56.87
2019-05-02T11:40:36.956Z,45.23
2019-05-02T11:43:07.180Z,45.77
2019-05-02T11:45:37.056Z,42.87
2019-05-02T11:48:09.215Z,48.97
2019-05-02T11:50:39.268Z,44.73
2019-05-02T11:53:23.271Z,44.40
2019-05-02T11:55:41.985Z,43.10
2019-05-02T11:58:12.695Z,53.43
2019-05-02T12:00:45.334Z,49.43
2019-05-02T12:03:23.637Z,52.00
2019-05-02T12:05:53.595Z,42.87
2019-05-02T12:08:23.878Z,49.97
2019-05-02T12:10:53.886Z,48.67
2019-05-02T12:13:23.847Z,48.50
2019-05-02T12:15:53.759Z,53.80
2019-05-02T12:18:23.717Z,49.60
2019-05-02T12:20:53.654Z,46.03
2019-05-02T12:23:23.558Z,45.50
2019-05-02T12:25:53.837Z,46.83
2019-05-02T12:28:23.745Z,50.93
2019-05-02T12:30:54.030Z,44.97
2019-05-02T12:33:25.974Z,50.60
2019-05-02T12:35:56.217Z,49.43
2019-05-02T12:38:26.637Z,46.97
2019-05-02T12:40:58.017Z,44.77
2019-05-02T12:43:27.921Z,47.43
2019-05-02T12:45:57.872Z,48.37
2019-05-02T12:48:27.840Z,41.60
2019-05-02T12:50:57.698Z,44.43
2019-05-02T12:53:28.719Z,41.47
2019-05-02T12:55:58.587Z,41.40
2019-05-02T12:58:28.720Z,37.47
2019-05-02T13:00:58.669Z,43.23
2019-05-02T13:03:39.302Z,37.37
2019-05-02T13:06:09.243Z,42.13
2019-05-02T13:08:52.427Z,44.90
2019-05-02T13:11:42.279Z,35.97
2019-05-02T13:14:18.615Z,36.17
2019-05-02T13:16:43.017Z,36.23
2019-05-02T13:19:14.284Z,33.43
2019-05-02T13:22:03.488Z,36.57
2019-05-02T13:24:37.119Z,33.37
2019-05-02T13:27:12.501Z,31.97
2019-05-02T13:29:42.910Z,29.67
2019-05-02T13:32:19.028Z,29.07
2019-05-02T13:34:56.984Z,32.07
2019-05-02T13:37:25.913Z,31.33
2019-05-02T13:40:12.537Z,31.97
2019-05-02T13:42:42.740Z,34.30
2019-05-02T13:45:37.679Z,33.83
2019-05-02T13:48:09.195Z,31.07
2019-05-02T13:50:39.217Z,25.80
2019-05-02T13:53:12.013Z,27.77
2019-05-02T13:55:46.473Z,29.17
2019-05-02T13:58:23.436Z,23.90
2019-05-02T14:00:49.267Z,23.73
2019-05-02T14:03:19.210Z,27.43
2019-05-02T14:05:53.256Z,23.47
2019-05-02T14:08:32.481Z,26.23
2019-05-02T14:11:18.118Z,22.57
2019-05-02T14:13:48.114Z,24.50
2019-05-02T14:16:18.285Z,29.00
2019-05-02T14:18:48.471Z,27.70
2019-05-02T14:21:18.340Z,29.77
2019-05-02T14:23:48.293Z,30.27
2019-05-02T14:26:29.691Z,30.60
2019-05-02T14:28:50.214Z,32.27
2019-05-02T14:31:21.694Z,31.27
2019-05-02T14:34:12.113Z,30.93
2019-05-02T14:36:42.717Z,34.27
2019-05-02T14:39:12.884Z,31.63
2019-05-02T14:41:44.676Z,36.47
2019-05-02T14:44:17.909Z,38.57
2019-05-02T14:46:46.944Z,41.37
2019-05-02T14:49:22.076Z,39.97
2019-05-02T14:51:49.159Z,38.70
2019-05-02T14:54:19.329Z,44.23
2019-05-02T14:56:54.303Z,43.83
2019-05-02T14:59:24.629Z,40.73
2019-05-02T15:02:02.473Z,44.13
2019-05-02T15:04:29.478Z,41.73
2019-05-02T15:06:59.525Z,43.03
2019-05-02T15:09:29.493Z,39.53
2019-05-02T15:11:59.532Z,45.13
2019-05-02T15:14:34.069Z,40.83
2019-05-02T15:17:05.068Z,45.00
2019-05-02T15:19:35.109Z,45.90
2019-05-02T15:22:05.399Z,43.33
2019-05-02T15:24:37.801Z,51.40
2019-05-02T15:27:11.805Z,41.17
2019-05-02T15:29:38.658Z,42.50
2019-05-02T15:32:25.640Z,41.67
2019-05-02T15:35:35.831Z,40.20
2019-05-02T15:38:06.922Z,42.03
2019-05-02T15:40:46.837Z,48.27
2019-05-02T15:43:09.591Z,46.77
2019-05-02T15:45:43.414Z,49.17
2019-05-02T15:48:14.657Z,54.33
2019-05-02T15:50:50.252Z,50.27
2019-05-02T15:53:32.626Z,49.60
2019-05-02T15:56:02.699Z,49.07
2019-05-02T15:58:33.310Z,43.93
2019-05-02T16:01:22.566Z,50.30
2019-05-02T16:03:53.745Z,51.27
2019-05-02T16:06:30.324Z,61.20
2019-05-02T16:08:56.772Z,69.87
2019-05-02T16:11:27.129Z,57.40
2019-05-02T16:13:57.077Z,36.73
2019-05-02T16:16:27.031Z,36.47
2019-05-02T16:18:57.040Z,39.90
2019-05-02T16:21:38.980Z,42.70
2019-05-02T16:24:22.999Z,50.63
2019-05-02T16:26:56.933Z,54.10
2019-05-02T16:29:28.816Z,55.80
2019-05-02T16:32:15.961Z,51.23
2019-05-02T16:34:55.095Z,50.10
2019-05-02T16:37:25.621Z,49.00
2019-05-02T16:39:55.821Z,50.97
2019-05-02T16:42:25.886Z,50.53
2019-05-02T16:44:55.873Z,53.23
2019-05-02T16:47:26.146Z,37.60
2019-05-02T16:49:56.638Z,37.60
2019-05-02T16:52:26.692Z,37.50
2019-05-02T16:54:56.668Z,39.33
2019-05-02T16:57:26.638Z,31.47
2019-05-02T17:00:01.687Z,32.03
2019-05-02T17:02:28.132Z,32.53
2019-05-02T17:05:00.248Z,34.80
2019-05-02T17:07:52.927Z,29.47
2019-05-02T17:10:35.216Z,35.97
2019-05-02T17:13:05.371Z,35.57
2019-05-02T17:15:36.727Z,30.30
2019-05-02T17:18:12.979Z,32.73
2019-05-02T17:20:38.949Z,32.90
2019-05-02T17:23:08.905Z,32.93
2019-05-02T17:25:41.524Z,33.10
2019-05-02T17:28:13.319Z,33.60
2019-05-02T17:30:44.478Z,31.80
2019-05-02T17:33:16.404Z,32.80
2019-05-02T17:35:51.356Z,34.43
2019-05-02T17:38:19.007Z,37.27
2019-05-02T17:40:53.730Z,33.13
2019-05-02T17:43:22.688Z,33.40
2019-05-02T17:45:53.375Z,33.00
2019-05-02T17:48:23.328Z,34.07
2019-05-02T17:51:04.027Z,33.83
2019-05-02T17:53:41.551Z,36.43
2019-05-02T17:56:05.673Z,30.43
2019-05-02T17:58:35.484Z,31.13
2019-05-02T18:01:09.125Z,32.57
2019-05-02T18:03:39.237Z,33.00
2019-05-02T18:06:13.216Z,29.27
2019-05-02T18:08:41.736Z,30.13
2019-05-02T18:11:12.711Z,26.60
2019-05-02T18:13:42.632Z,26.83
2019-05-02T18:16:16.638Z,24.77
2019-05-02T18:18:46.726Z,23.77
2019-05-02T18:21:17.738Z,24.43
2019-05-02T18:23:48.445Z,26.37
2019-05-02T18:26:18.426Z,26.97
2019-05-02T18:28:49.383Z,25.17
2019-05-02T18:31:19.381Z,27.50
2019-05-02T18:33:49.506Z,27.20
2019-05-02T18:36:23.916Z,24.97
2019-05-02T18:38:52.512Z,29.27
2019-05-02T18:41:23.232Z,27.77
2019-05-02T18:43:53.158Z,31.93
2019-05-02T18:46:23.091Z,30.27
2019-05-02T18:48:53.594Z,28.03
2019-05-02T18:51:23.837Z,27.93
2019-05-02T18:53:58.007Z,35.43
2019-05-02T18:56:25.424Z,29.83
2019-05-02T18:58:55.719Z,33.00
2019-05-02T19:01:25.721Z,31.10
2019-05-02T19:03:56.306Z,33.80
2019-05-02T19:06:27.930Z,32.23
2019-05-02T19:09:02.155Z,33.87
2019-05-02T19:11:35.306Z,33.53
2019-05-02T19:14:05.898Z,29.63
2019-05-02T19:16:35.841Z,32.27
2019-05-02T19:19:06.108Z,30.70
2019-05-02T19:21:39.387Z,32.77
2019-05-02T19:24:07.851Z,31.20
2019-05-02T19:26:41.669Z,29.87
2019-05-02T19:29:17.308Z,26.50
2019-05-02T19:31:49.903Z,34.17
2019-05-02T19:34:24.177Z,31.63
2019-05-02T19:36:52.843Z,34.17
2019-05-02T19:39:24.310Z,32.43
2019-05-02T19:41:55.185Z,34.20
2019-05-02T19:44:28.872Z,30.17
2019-05-02T19:46:57.750Z,32.47
2019-05-02T19:49:27.707Z,29.63
2019-05-02T19:51:58.328Z,29.67
2019-05-02T19:54:33.559Z,35.87
2019-05-02T19:56:59.900Z,34.13
2019-05-02T19:59:32.020Z,29.70
2019-05-02T20:02:05.931Z,35.43
2019-05-02T20:04:37.769Z,34.27
2019-05-02T20:07:05.157Z,32.97
2019-05-02T20:09:38.078Z,32.47
2019-05-02T20:12:09.642Z,29.37
2019-05-02T20:14:43.636Z,30.23
2019-05-02T20:17:14.944Z,33.50
2019-05-02T20:19:47.639Z,28.53
2019-05-02T20:22:18.655Z,28.53
2019-05-02T20:25:06.739Z,30.07
2019-05-02T20:27:36.678Z,27.47
2019-05-02T20:30:07.692Z,29.63
2019-05-02T20:32:37.644Z,33.50
2019-05-02T20:35:07.925Z,31.97
2019-05-02T20:37:38.069Z,30.00
2019-05-02T20:40:09.605Z,32.07
2019-05-02T20:42:39.477Z,32.50
2019-05-02T20:45:11.656Z,36.13
2019-05-02T20:47:42.735Z,31.20
2019-05-02T20:50:13.059Z,36.33
2019-05-02T20:52:42.944Z,31.70
2019-05-02T20:55:13.075Z,33.10
2019-05-02T20:57:43.211Z,30.73
2019-05-02T21:00:23.554Z,28.17
2019-05-02T21:02:53.649Z,25.80
2019-05-02T21:05:32.118Z,23.37
2019-05-02T21:08:15.012Z,18.03
2019-05-02T21:10:45.357Z,18.93
2019-05-02T21:13:15.365Z,22.57
2019-05-02T21:15:45.310Z,15.63
2019-05-02T21:18:16.390Z,18.03
2019-05-02T21:20:46.392Z,15.17
2019-05-02T21:23:16.647Z,17.57
2019-05-02T21:25:46.590Z,14.07
2019-05-02T21:28:16.525Z,14.57
2019-05-02T21:30:46.472Z,12.63
2019-05-02T21:33:33.675Z,15.03
2019-05-02T21:36:04.779Z,14.20
2019-05-02T21:38:34.766Z,15.90
2019-05-02T21:41:07.668Z,15.43
2019-05-02T21:43:38.604Z,13.07
2019-05-02T21:46:08.490Z,16.17
2019-05-02T21:48:38.429Z,14.37
2019-05-02T21:51:17.859Z,12.70
2019-05-02T21:54:07.337Z,13.80
2019-05-02T21:56:43.353Z,10.67
2019-05-02T21:59:14.382Z,13.73
2019-05-02T22:01:52.182Z,10.70
2019-05-02T22:04:22.886Z,10.77
2019-05-02T22:06:53.198Z,10.47
2019-05-02T22:09:24.111Z,9.80
2019-05-02T22:11:54.045Z,8.73
2019-05-02T22:14:24.005Z,10.20
2019-05-02T22:16:54.283Z,10.97
2019-05-02T22:19:24.501Z,11.80
2019-05-02T22:21:54.776Z,9.70
2019-05-02T22:24:24.652Z,10.53
2019-05-02T22:26:54.602Z,10.43
2019-05-02T22:29:24.544Z,8.83
2019-05-02T22:31:54.880Z,10.47
2019-05-02T22:34:25.129Z,9.80
2019-05-02T22:36:55.059Z,7.97
2019-05-02T22:39:39.560Z,9.80
2019-05-02T22:42:09.534Z,9.77
2019-05-02T22:44:39.484Z,7.87
2019-05-02T22:47:11.856Z,8.23
2019-05-02T22:49:43.145Z,11.10
2019-05-02T22:52:14.387Z,9.20
2019-05-02T22:54:44.686Z,7.73
2019-05-02T22:57:14.991Z,10.20
2019-05-02T22:59:44.849Z,8.53
2019-05-02T23:02:14.790Z,12.00
2019-05-02T23:04:44.659Z,8.67
2019-05-02T23:07:14.587Z,9.57
2019-05-02T23:09:44.869Z,9.23
2019-05-02T23:12:15.135Z,7.97
2019-05-02T23:14:46.569Z,9.57
2019-05-02T23:17:16.419Z,8.00
2019-05-02T23:19:46.366Z,10.13
2019-05-02T23:22:16.220Z,8.70
2019-05-02T23:25:04.428Z,9.67
2019-05-02T23:27:42.415Z,10.93
2019-05-02T23:30:14.946Z,8.33
2019-05-02T23:32:45.223Z,9.67
2019-05-02T23:35:15.794Z,10.93
2019-05-02T23:37:45.669Z,8.80
2019-05-02T23:40:15.786Z,8.87
2019-05-02T23:42:45.728Z,7.93
2019-05-02T23:45:15.674Z,8.27
2019-05-02T23:47:45.850Z,10.10
2019-05-02T23:50:15.878Z,9.00
2019-05-02T23:52:46.458Z,9.97
2019-05-02T23:55:16.403Z,9.77
2019-05-02T23:57:46.324Z,10.83
